KPRG

Edgar County Airport

Paris, Illinois, USA
METAR KPRG 220215Z AUTO 20004KT 10SM CLR 21/19 A3002 RMK AO2 T02060194
Observed Flight Rules
May-22 @ 02:15 UTC (22 minutes ago) Visual Flight Rules
Wind Visibility Clouds
200° at 4 knots 10 miles
  • Clear skies
Temperatures Readings
Current 21°C / 70°F
Dewpoint 19°C / 66°F
Humidity 88%
Altimeter 30.02" Hg
Pressure 1017 hPa
Elevation 199
METAR KPRG 220215Z AUTO 20004KT 10SM CLR 21/19 A3002 RMK AO2 T02060194
Observed Flight Rules
May-22 @ 02:15 UTC
(22 minutes ago)
VFR
Wind Visibility
200° at 4 knots 10 miles
Clouds
  • Clear skies
Temperature Dewpoint
21°C / 70°F 19°C / 66°F
Humidity Altimeter Pressure
88% 30.02" Hg 1017 hPa